Time;durP1;ratioP1;P1;durP2;ratioP2;P2;SDS_P1;SDS_P2;PMS_P1;PMS_P2;Temp;Humidity;BMP_temperature;BMP_pressure;BME280_temperature;BME280_humidity;BME280_pressure;Samples;Min_cycle;Max_cycle;Signal;HPM_P1;HPM_P2
2021/12/21 00:01:26;;;;;;;27.30;7.65;;;-0.90;99.90;;;;;;5114516;28;20104;-59
2021/12/21 00:03:53;;;;;;;18.58;8.27;;;-0.90;99.90;;;;;;5114094;28;20105;-59
2021/12/21 00:06:20;;;;;;;21.15;8.50;;;-0.90;99.90;;;;;;5108314;28;20126;-59
2021/12/21 00:08:47;;;;;;;16.52;8.40;;;-0.90;99.90;;;;;;5105661;28;20035;-58
2021/12/21 00:11:15;;;;;;;19.77;7.63;;;-0.90;99.90;;;;;;5111755;28;20507;-59
2021/12/21 00:14:38;;;;;;;23.70;8.48;;;-1.00;99.90;;;;;;5110367;28;20524;-59
2021/12/21 00:17:03;;;;;;;20.92;8.85;;;-1.00;99.90;;;;;;5097972;28;20056;-59
2021/12/21 00:25:01;;;;;;;23.00;8.27;;;-1.10;99.90;;;;;;5103977;28;20596;-59
2021/12/21 00:27:28;;;;;;;22.70;8.93;;;-1.10;99.90;;;;;;5111533;28;20062;-59
2021/12/21 00:29:55;;;;;;;21.77;8.85;;;-1.20;99.90;;;;;;5105444;28;20488;-59
2021/12/21 00:32:23;;;;;;;21.00;9.73;;;-1.20;99.90;;;;;;5111811;28;20069;-59
2021/12/21 00:34:50;;;;;;;20.55;9.02;;;-1.20;99.90;;;;;;5102281;28;20048;-59
2021/12/21 00:37:18;;;;;;;20.48;8.48;;;-1.20;99.90;;;;;;5113396;28;20043;-58
2021/12/21 00:39:45;;;;;;;22.10;8.10;;;-1.30;99.90;;;;;;5114188;28;20097;-59
2021/12/21 00:42:12;;;;;;;20.90;7.97;;;-1.30;99.90;;;;;;5107551;28;20039;-58
2021/12/21 00:44:40;;;;;;;21.25;9.07;;;-1.30;99.90;;;;;;5106086;28;20056;-58
2021/12/21 00:47:07;;;;;;;17.38;7.97;;;-1.30;99.90;;;;;;5106963;28;20054;-59
2021/12/21 00:49:35;;;;;;;20.50;7.85;;;-1.30;99.90;;;;;;5106913;28;20052;-59
2021/12/21 00:52:02;;;;;;;19.00;7.85;;;-1.30;99.90;;;;;;5106599;28;20094;-58
2021/12/21 00:54:29;;;;;;;23.52;8.15;;;-1.30;99.90;;;;;;5107402;28;20044;-59
2021/12/21 00:56:56;;;;;;;17.95;8.23;;;-1.40;99.90;;;;;;5105343;28;20040;-58
2021/12/21 00:59:23;;;;;;;18.95;8.77;;;-1.40;99.90;;;;;;5108162;28;20039;-58
2021/12/21 01:01:50;;;;;;;19.02;8.50;;;-1.50;99.90;;;;;;5105264;28;20129;-59
2021/12/21 01:04:23;;;;;;;;;;;-1.50;99.90;;;;;;5109448;28;20036;-59
2021/12/21 01:07:05;;;;;;;18.55;7.85;;;-1.50;99.90;;;;;;5104692;28;19926;-59
2021/12/21 01:10:38;;;;;;;17.92;7.80;;;-1.60;99.90;;;;;;5106447;28;20048;-59
2021/12/21 01:18:00;;;;;;;17.15;7.47;;;-1.70;99.90;;;;;;5089954;28;20120;-58
2021/12/21 01:20:36;;;;;;;11.25;4.50;;;-1.80;99.90;;;;;;5104930;28;20047;-58
2021/12/21 01:28:30;;;;;;;7.90;3.70;;;-1.80;99.90;;;;;;5113139;28;20096;-58
2021/12/21 01:36:31;;;;;;;10.05;3.08;;;-2.00;99.90;;;;;;5112533;28;20044;-58
2021/12/21 01:41:55;;;;;;;11.65;3.00;;;-2.00;99.90;;;;;;5071375;28;20096;-58
2021/12/21 01:49:39;;;;;;;8.45;3.05;;;-2.10;99.90;;;;;;5112578;28;20381;-59
2021/12/21 01:52:09;;;;;;;7.72;2.67;;;-2.10;99.90;;;;;;5112784;28;20043;-58
2021/12/21 01:54:36;;;;;;;12.73;3.60;;;-2.00;99.90;;;;;;5111753;28;20042;-59
2021/12/21 01:57:04;;;;;;;8.77;3.42;;;-2.00;99.90;;;;;;5112152;28;20059;-58
2021/12/21 01:59:33;;;;;;;4.45;2.70;;;-2.00;99.90;;;;;;5112179;28;20050;-58
2021/12/21 02:02:01;;;;;;;8.73;3.10;;;-2.10;99.90;;;;;;5112704;28;20043;-58
2021/12/21 02:04:28;;;;;;;11.85;3.22;;;-2.30;99.90;;;;;;5112423;28;20050;-59
2021/12/21 02:06:55;;;;;;;7.65;2.90;;;-2.30;99.90;;;;;;5111534;28;20047;-58
2021/12/21 02:09:27;;;;;;;11.82;3.85;;;-2.30;99.90;;;;;;5112426;28;20126;-58
2021/12/21 02:11:55;;;;;;;10.25;2.88;;;-2.40;99.90;;;;;;5112335;28;20039;-58
2021/12/21 02:14:24;;;;;;;7.30;3.42;;;-2.40;99.90;;;;;;5112260;28;20044;-58
2021/12/21 02:17:06;;;;;;;6.63;3.53;;;-2.50;99.90;;;;;;5111747;28;20043;-58
2021/12/21 02:19:54;;;;;;;9.05;3.63;;;-2.50;99.90;;;;;;5112363;28;20040;-59
2021/12/21 02:22:24;;;;;;;10.27;3.85;;;-2.50;99.90;;;;;;5112061;28;20089;-58
2021/12/21 02:25:02;;;;;;;9.20;3.22;;;-2.50;99.90;;;;;;5112061;28;20052;-58
2021/12/21 02:27:42;;;;;;;6.10;2.72;;;-2.50;99.90;;;;;;5112037;28;20468;-58
2021/12/21 02:30:13;;;;;;;7.60;3.08;;;-2.50;99.90;;;;;;5111938;28;20040;-58
2021/12/21 02:32:40;;;;;;;7.15;3.10;;;-2.60;99.90;;;;;;5112099;28;20100;-58
2021/12/21 02:35:08;;;;;;;10.60;3.72;;;-2.60;99.90;;;;;;5111731;28;20043;-58
2021/12/21 02:37:35;;;;;;;7.68;3.47;;;-2.70;99.90;;;;;;5111896;28;20130;-58
2021/12/21 02:40:04;;;;;;;10.13;3.05;;;-2.60;99.90;;;;;;5111894;28;20036;-58
2021/12/21 02:42:31;;;;;;;9.77;4.07;;;-2.70;99.90;;;;;;5111868;28;20118;-58
2021/12/21 02:44:58;;;;;;;7.60;3.22;;;-2.70;99.90;;;;;;5111858;28;20043;-58
2021/12/21 02:47:25;;;;;;;9.27;3.65;;;-2.70;99.90;;;;;;5111506;28;20063;-59
2021/12/21 02:49:51;;;;;;;10.18;3.25;;;-2.70;99.90;;;;;;5111750;28;20040;-58
2021/12/21 02:52:18;;;;;;;7.82;3.20;;;-2.70;99.90;;;;;;5111931;28;20040;-58
2021/12/21 02:54:45;;;;;;;8.57;3.40;;;-2.70;99.90;;;;;;5111933;28;20040;-59
2021/12/21 02:57:12;;;;;;;8.88;3.30;;;-2.80;99.90;;;;;;5111448;28;20108;-58
2021/12/21 02:59:39;;;;;;;9.60;3.10;;;-2.90;99.90;;;;;;5112055;28;20465;-58
2021/12/21 03:02:06;;;;;;;9.20;3.20;;;-3.00;99.90;;;;;;5111778;28;20051;-58
2021/12/21 03:04:33;;;;;;;9.68;3.25;;;-3.00;99.90;;;;;;5111806;28;20081;-58
2021/12/21 03:09:43;;;;;;;13.80;4.00;;;-3.20;99.90;;;;;;5115932;28;20051;-58
2021/12/21 03:14:49;;;;;;;;;;;-3.20;99.90;;;;;;5115983;28;19924;-58
2021/12/21 03:17:17;;;;;;;9.77;3.40;;;-3.20;99.90;;;;;;5115268;28;19946;-58
2021/12/21 03:19:44;;;;;;;;;;;-3.20;99.90;;;;;;5116138;28;20122;-58
2021/12/21 03:22:12;;;;;;;15.13;3.40;;;-3.20;99.90;;;;;;5115448;28;19964;-58
2021/12/21 03:24:41;;;;;;;7.82;3.22;;;-3.20;99.90;;;;;;5115571;28;20079;-58
2021/12/21 03:27:08;;;;;;;7.68;2.83;;;-3.30;99.90;;;;;;5114850;28;20573;-58
2021/12/21 03:29:36;;;;;;;7.88;3.75;;;-3.30;99.90;;;;;;5115386;28;20040;-58
2021/12/21 03:32:03;;;;;;;7.95;3.28;;;-3.40;99.90;;;;;;5115427;28;20043;-58
2021/12/21 03:34:30;;;;;;;8.27;3.22;;;-3.40;99.90;;;;;;5115263;28;20054;-58
2021/12/21 03:36:57;;;;;;;8.43;3.38;;;-3.40;99.90;;;;;;5114755;28;20081;-58
2021/12/21 03:39:24;;;;;;;8.27;3.28;;;-3.50;99.90;;;;;;5115228;28;20047;-58
2021/12/21 03:41:56;;;;;;;9.18;3.38;;;-3.50;99.90;;;;;;5115135;28;20793;-58
2021/12/21 03:44:24;;;;;;;9.65;3.25;;;-3.60;99.90;;;;;;5115126;28;20097;-59
2021/12/21 03:46:54;;;;;;;9.05;3.17;;;-3.70;99.90;;;;;;5114687;28;20035;-58
2021/12/21 03:52:01;;;;;;;14.75;4.70;;;-3.80;99.90;;;;;;5115012;28;20092;-58
2021/12/21 03:54:28;;;;;;;8.50;3.42;;;-3.70;99.90;;;;;;5114944;28;20043;-58
2021/12/21 03:56:54;;;;;;;10.95;3.60;;;-3.80;99.90;;;;;;5114429;28;20399;-58
2021/12/21 03:59:21;;;;;;;8.60;3.83;;;-3.80;99.90;;;;;;5115137;28;20035;-58
2021/12/21 04:01:50;;;;;;;10.43;3.70;;;-3.80;99.90;;;;;;5114681;28;20086;-58
2021/12/21 04:04:18;;;;;;;8.75;3.60;;;-3.90;99.90;;;;;;5114861;28;20123;-60
2021/12/21 04:06:46;;;;;;;13.30;4.18;;;-4.00;99.90;;;;;;5114446;28;20399;-59
2021/12/21 04:09:13;;;;;;;9.43;3.90;;;-4.00;99.90;;;;;;5114730;28;20078;-60
2021/12/21 04:11:41;;;;;;;10.13;3.63;;;-4.00;99.90;;;;;;5114339;28;20044;-58
2021/12/21 04:14:09;;;;;;;8.20;3.50;;;-4.00;99.90;;;;;;5114580;28;20553;-58
2021/12/21 04:16:36;;;;;;;12.90;3.35;;;-4.00;99.90;;;;;;5113560;28;20548;-59
2021/12/21 04:19:04;;;;;;;9.90;4.05;;;-4.00;99.90;;;;;;5113730;28;20075;-58
2021/12/21 04:21:31;;;;;;;10.57;3.58;;;-4.00;99.90;;;;;;5114468;28;20049;-58
2021/12/21 04:23:58;;;;;;;8.25;3.35;;;-4.00;99.90;;;;;;5114381;28;20122;-58
2021/12/21 04:26:25;;;;;;;9.40;3.42;;;-4.00;99.90;;;;;;5114113;28;20442;-58
2021/12/21 04:28:52;;;;;;;14.45;3.40;;;-4.00;99.90;;;;;;5114272;28;20417;-58
2021/12/21 04:31:19;;;;;;;9.15;3.67;;;-4.00;99.90;;;;;;5114245;28;20093;-58
2021/12/21 04:33:46;;;;;;;9.07;3.88;;;-4.10;99.90;;;;;;5114136;28;20039;-58
2021/12/21 04:36:14;;;;;;;;;;;-4.20;99.90;;;;;;5114113;28;20039;-58
2021/12/21 04:38:45;;;;;;;9.00;4.35;;;-4.20;99.90;;;;;;5114179;28;19923;-60
2021/12/21 04:41:23;;;;;;;10.27;3.85;;;-4.20;99.90;;;;;;5113902;28;20488;-60
2021/12/21 04:43:52;;;;;;;8.10;3.70;;;-4.20;99.90;;;;;;5114105;28;20048;-58
2021/12/21 04:46:18;;;;;;;11.55;4.03;;;-4.20;99.90;;;;;;5113288;28;20058;-60
2021/12/21 04:48:46;;;;;;;13.30;4.45;;;-4.30;99.90;;;;;;5113979;28;20778;-57
2021/12/21 04:51:12;;;;;;;8.85;4.00;;;-4.30;99.90;;;;;;5113951;28;20092;-60
2021/12/21 04:53:40;;;;;;;10.73;3.58;;;-4.30;99.90;;;;;;5113630;28;20557;-60
2021/12/21 04:56:07;;;;;;;9.68;3.60;;;-4.40;99.90;;;;;;5113321;28;20384;-59
2021/12/21 04:58:34;;;;;;;9.30;3.92;;;-4.40;99.90;;;;;;5113678;28;20518;-60
2021/12/21 05:01:02;;;;;;;11.32;4.07;;;-4.30;99.90;;;;;;5113834;28;20453;-58
2021/12/21 05:03:29;;;;;;;10.07;3.92;;;-4.30;99.90;;;;;;5113483;28;20046;-58
2021/12/21 05:05:56;;;;;;;7.90;3.97;;;-4.30;99.90;;;;;;5113107;28;20055;-58
2021/12/21 05:08:26;;;;;;;;;;;-4.30;99.90;;;;;;5114031;28;20047;-58
2021/12/21 05:11:04;;;;;;;9.23;3.92;;;-4.30;99.90;;;;;;5113341;28;19984;-58
2021/12/21 05:13:34;;;;;;;11.55;3.70;;;-4.40;99.90;;;;;;5113394;28;20143;-58
2021/12/21 05:16:01;;;;;;;12.32;4.35;;;-4.50;99.90;;;;;;5127103;22;20400;-55
2021/12/21 05:18:28;;;;;;;7.97;4.18;;;-4.50;99.90;;;;;;5111822;27;20067;-55
2021/12/21 05:20:55;;;;;;;12.77;4.60;;;-4.50;99.90;;;;;;5103074;28;20043;-54
2021/12/21 05:23:22;;;;;;;12.07;4.65;;;-4.50;99.90;;;;;;5092907;28;20044;-54
2021/12/21 05:25:49;;;;;;;17.48;6.32;;;-4.50;99.90;;;;;;5092131;28;20048;-56
2021/12/21 05:28:17;;;;;;;12.63;5.28;;;-4.50;99.90;;;;;;5092746;28;20067;-54
2021/12/21 05:30:44;;;;;;;10.30;4.45;;;-4.50;99.90;;;;;;5097429;28;20516;-57
2021/12/21 05:33:11;;;;;;;9.07;3.83;;;-4.50;99.90;;;;;;5112872;28;20040;-55
2021/12/21 05:35:38;;;;;;;9.80;4.45;;;-4.50;99.90;;;;;;5111756;28;20039;-55
2021/12/21 05:38:08;;;;;;;12.05;3.83;;;-4.40;99.90;;;;;;5112633;28;20044;-56
2021/12/21 05:40:39;;;;;;;13.27;4.20;;;-4.40;99.90;;;;;;5111968;28;20063;-57
2021/12/21 05:43:08;;;;;;;13.45;4.22;;;-4.40;99.90;;;;;;5111813;28;20088;-57
2021/12/21 05:45:36;;;;;;;11.70;3.92;;;-4.40;99.90;;;;;;5111829;28;20533;-56
2021/12/21 05:48:04;;;;;;;11.60;4.25;;;-4.40;99.90;;;;;;5112182;28;20088;-57
2021/12/21 05:50:31;;;;;;;8.45;4.22;;;-4.40;99.90;;;;;;5112581;28;20039;-57
2021/12/21 05:52:58;;;;;;;8.70;3.97;;;-4.40;99.90;;;;;;5112450;28;20047;-56
2021/12/21 05:55:25;;;;;;;13.23;5.22;;;-4.40;99.90;;;;;;5112149;28;20039;-56
2021/12/21 05:57:52;;;;;;;14.20;5.88;;;-4.40;99.90;;;;;;5112621;28;20036;-57
2021/12/21 06:00:25;;;;;;;10.40;4.93;;;-4.40;99.90;;;;;;5112353;28;20044;-56
2021/12/21 06:02:53;;;;;;;11.20;4.85;;;-4.40;99.90;;;;;;5111657;28;20046;-57
2021/12/21 06:05:21;;;;;;;9.25;4.18;;;-4.50;99.90;;;;;;5110665;28;20445;-56
2021/12/21 06:07:51;;;;;;;;;;;-4.50;99.90;;;;;;5109685;28;20442;-57
2021/12/21 06:10:26;;;;;;;14.55;5.20;;;-4.50;99.90;;;;;;5111577;28;19989;-56
2021/12/21 06:26:12;;;;;;;10.20;4.22;;;-4.40;99.90;;;;;;5111081;28;20032;-56
2021/12/21 06:28:41;;;;;;;12.90;5.30;;;-4.70;99.90;;;;;;5109096;28;20488;-56
2021/12/21 06:31:08;;;;;;;14.38;6.00;;;-4.60;99.90;;;;;;5111687;28;20047;-57
2021/12/21 06:33:34;;;;;;;;;;;-4.60;99.90;;;;;;5112208;28;20114;-56
2021/12/21 06:36:02;;;;;;;10.75;5.60;;;-4.60;99.90;;;;;;5111722;28;20325;-54
2021/12/21 06:38:29;;;;;;;18.00;6.72;;;-4.50;99.90;;;;;;5111914;28;20039;-56
2021/12/21 06:40:56;;;;;;;15.00;5.97;;;-4.60;99.90;;;;;;5110717;28;20441;-56
2021/12/21 06:43:23;;;;;;;13.05;5.80;;;-4.50;99.90;;;;;;5110375;28;20047;-52
2021/12/21 06:51:47;;;;;;;15.38;5.85;;;-4.60;99.90;;;;;;5111901;28;20730;-52
2021/12/21 06:54:14;;;;;;;13.63;5.28;;;-4.60;99.90;;;;;;5111850;28;20051;-56
2021/12/21 06:56:41;;;;;;;12.00;5.15;;;-4.60;99.90;;;;;;5111306;28;20118;-54
2021/12/21 06:59:08;;;;;;;12.77;5.65;;;-4.50;99.90;;;;;;5111719;28;20044;-56
2021/12/21 07:01:37;;;;;;;14.10;5.63;;;-4.50;99.90;;;;;;5111614;28;20043;-57
2021/12/21 07:04:06;;;;;;;12.20;5.93;;;-4.40;99.90;;;;;;5111918;28;20066;-56
2021/12/21 07:06:37;;;;;;;14.93;6.13;;;-4.40;99.90;;;;;;5111226;28;20040;-56
2021/12/21 07:20:10;;;;;;;26.55;11.43;;;-4.50;99.90;;;;;;5111497;28;20055;-56
2021/12/21 07:22:37;;;;;;;26.85;11.07;;;-4.40;99.90;;;;;;5111476;28;20376;-55
2021/12/21 07:25:04;;;;;;;16.75;7.70;;;-4.50;99.90;;;;;;5111331;28;20500;-56
2021/12/21 07:27:31;;;;;;;17.25;7.28;;;-4.60;99.90;;;;;;5111210;28;20444;-55
2021/12/21 07:29:58;;;;;;;22.38;8.20;;;-4.60;99.90;;;;;;5111312;28;20044;-55
2021/12/21 07:32:25;;;;;;;16.92;7.22;;;-4.60;99.90;;;;;;5111409;28;20082;-57
2021/12/21 07:34:52;;;;;;;14.07;7.00;;;-4.60;99.90;;;;;;5111280;28;20043;-54
2021/12/21 07:37:19;;;;;;;14.68;6.28;;;-4.70;99.90;;;;;;5110900;28;20075;-56
2021/12/21 07:39:46;;;;;;;14.80;6.25;;;-4.70;99.90;;;;;;5111182;28;20067;-57
2021/12/21 07:42:18;;;;;;;23.80;8.10;;;-4.70;99.90;;;;;;5111338;28;20039;-55
2021/12/21 07:44:45;;;;;;;15.65;6.72;;;-4.70;99.90;;;;;;5111219;28;20039;-57
2021/12/21 07:47:12;;;;;;;16.38;7.05;;;-4.80;99.90;;;;;;5110818;28;20036;-55
2021/12/21 07:49:39;;;;;;;;;;;-4.70;99.90;;;;;;5111316;28;20040;-56
2021/12/21 07:52:07;;;;;;;19.08;6.45;;;-4.80;99.90;;;;;;5111544;28;19920;-56
2021/12/21 07:54:35;;;;;;;15.60;6.15;;;-4.90;99.90;;;;;;5114915;28;20135;-55
2021/12/21 07:57:03;;;;;;;17.90;6.50;;;-4.80;99.90;;;;;;5114359;28;20050;-56
2021/12/21 07:59:30;;;;;;;35.45;12.02;;;-4.90;99.90;;;;;;5114795;28;20063;-55
2021/12/21 08:01:57;;;;;;;38.70;13.43;;;-4.70;99.90;;;;;;5114601;28;20104;-56
2021/12/21 08:04:27;;;;;;;;;;;-4.60;99.90;;;;;;5114908;28;20054;-56
2021/12/21 08:06:59;;;;;;;32.05;13.30;;;-4.50;99.90;;;;;;5114206;28;19931;-56
2021/12/21 08:09:32;;;;;;;30.23;12.13;;;-4.50;99.90;;;;;;5114786;28;20376;-56
2021/12/21 08:12:14;;;;;;;20.38;9.68;;;-4.40;99.90;;;;;;5114973;28;20524;-55
2021/12/21 08:14:42;;;;;;;15.30;7.75;;;-4.40;99.90;;;;;;5114427;28;20036;-56
2021/12/21 08:17:09;;;;;;;18.02;7.35;;;-4.40;99.90;;;;;;5113753;28;20112;-57
2021/12/21 08:19:42;;;;;;;17.75;7.35;;;-4.40;99.90;;;;;;5114423;28;20043;-57
2021/12/21 08:22:09;;;;;;;16.48;5.88;;;-4.40;99.90;;;;;;5114200;28;20032;-55
2021/12/21 08:24:36;;;;;;;16.60;6.35;;;-4.40;99.90;;;;;;5114435;28;20036;-56
2021/12/21 08:27:03;;;;;;;19.58;7.25;;;-4.40;99.90;;;;;;5113574;28;20047;-56
2021/12/21 08:29:30;;;;;;;21.73;8.10;;;-4.40;99.90;;;;;;5114206;28;20108;-55
2021/12/21 08:31:57;;;;;;;;;;;-4.40;99.90;;;;;;5114319;28;20067;-56
2021/12/21 08:34:24;;;;;;;16.13;6.97;;;-4.30;99.90;;;;;;5114013;28;19968;-56
2021/12/21 08:36:52;;;;;;;20.88;7.00;;;-4.40;99.90;;;;;;5113469;28;20122;-56
2021/12/21 08:39:23;;;;;;;23.52;8.50;;;-4.40;99.90;;;;;;5114093;28;20097;-56
2021/12/21 08:41:56;;;;;;;22.90;8.57;;;-4.50;99.90;;;;;;5113678;28;20488;-56
2021/12/21 08:44:25;;;;;;;25.75;8.90;;;-4.50;99.90;;;;;;5114036;28;20043;-57
2021/12/21 08:46:53;;;;;;;23.55;8.23;;;-4.40;99.90;;;;;;5113367;28;20039;-57
2021/12/21 08:49:20;;;;;;;28.45;10.95;;;-4.30;99.90;;;;;;5113690;28;20598;-57
2021/12/21 08:51:46;;;;;;;61.85;25.35;;;-4.10;99.90;;;;;;5113843;28;20416;-56
2021/12/21 08:54:13;;;;;;;26.77;11.25;;;-3.90;99.90;;;;;;5095734;28;20059;-57
2021/12/21 08:56:40;;;;;;;28.10;10.40;;;-3.80;99.90;;;;;;5113166;28;20067;-57
2021/12/21 08:59:07;;;;;;;21.67;9.00;;;-3.70;99.90;;;;;;5113734;28;20048;-57
2021/12/21 09:01:34;;;;;;;22.30;8.38;;;-3.60;99.90;;;;;;5113261;28;20046;-57
2021/12/21 09:04:02;;;;;;;20.85;8.65;;;-3.60;99.90;;;;;;5113130;28;20096;-57
2021/12/21 09:06:30;;;;;;;13.98;7.30;;;-3.60;99.90;;;;;;5113071;28;20503;-57
2021/12/21 09:08:57;;;;;;;20.23;8.07;;;-3.60;99.90;;;;;;5113359;28;20039;-58
2021/12/21 09:11:24;;;;;;;16.77;8.10;;;-3.60;99.90;;;;;;5113529;28;20087;-57
2021/12/21 09:13:51;;;;;;;20.00;8.35;;;-3.50;99.90;;;;;;5113459;28;20051;-56
2021/12/21 09:16:18;;;;;;;17.45;8.32;;;-3.50;99.90;;;;;;5112721;28;20047;-57
2021/12/21 09:18:45;;;;;;;18.20;7.20;;;-3.40;99.90;;;;;;5113198;28;20051;-57
2021/12/21 09:21:12;;;;;;;19.38;7.72;;;-3.40;99.90;;;;;;5113142;28;20082;-56
2021/12/21 09:23:40;;;;;;;16.95;7.60;;;-3.30;99.90;;;;;;5113008;28;20131;-56
2021/12/21 09:26:13;;;;;;;17.92;7.63;;;-3.20;99.90;;;;;;5112748;28;20046;-57
2021/12/21 09:28:40;;;;;;;21.05;7.43;;;-3.10;99.90;;;;;;5112794;28;20040;-57
2021/12/21 09:31:06;;;;;;;12.70;4.97;;;-3.00;99.90;;;;;;5113103;28;20040;-57
2021/12/21 09:33:33;;;;;;;14.85;6.57;;;-2.90;99.90;;;;;;5112764;28;20047;-57
2021/12/21 09:36:00;;;;;;;18.17;6.05;;;-2.90;99.90;;;;;;5112442;28;20500;-58
2021/12/21 09:38:27;;;;;;;16.88;6.88;;;-2.80;99.90;;;;;;5112854;28;20560;-58
2021/12/21 09:40:55;;;;;;;23.02;7.45;;;-2.70;99.90;;;;;;5112924;28;20125;-57
2021/12/21 09:43:22;;;;;;;22.05;7.47;;;-2.60;99.90;;;;;;5113035;28;20043;-57
2021/12/21 09:45:49;;;;;;;24.58;8.05;;;-2.60;99.90;;;;;;5112858;28;20036;-57
2021/12/21 09:48:17;;;;;;;21.08;7.70;;;-2.60;99.90;;;;;;5112503;28;20035;-57
2021/12/21 09:50:44;;;;;;;;;;;-2.50;99.90;;;;;;5113083;28;20044;-57
2021/12/21 09:53:12;;;;;;;18.75;7.50;;;-2.50;99.90;;;;;;5112653;28;19919;-58
2021/12/21 09:55:43;;;;;;;18.70;8.07;;;-2.40;99.90;;;;;;5112212;28;20048;-58
2021/12/21 09:58:10;;;;;;;;;;;-2.30;99.90;;;;;;5112734;28;20128;-57
2021/12/21 10:00:37;;;;;;;18.92;7.63;;;-2.30;99.90;;;;;;5112441;28;19964;-58
2021/12/21 10:03:05;;;;;;;19.80;7.00;;;-2.20;99.90;;;;;;5112292;28;20052;-58
2021/12/21 10:05:35;;;;;;;19.63;7.72;;;-2.20;99.90;;;;;;5111845;28;20051;-56
2021/12/21 10:08:15;;;;;;;16.25;7.78;;;-2.10;99.90;;;;;;5112149;28;20046;-57
2021/12/21 10:10:48;;;;;;;20.58;6.93;;;-2.10;99.90;;;;;;5112208;28;20112;-58
2021/12/21 10:13:19;;;;;;;20.08;7.72;;;-2.00;99.90;;;;;;5112187;28;20086;-57
2021/12/21 10:15:51;;;;;;;21.55;8.32;;;-2.00;99.90;;;;;;5110929;28;20047;-57
2021/12/21 10:18:32;;;;;;;16.83;7.18;;;-2.00;99.90;;;;;;5112027;28;20547;-57
2021/12/21 10:21:03;;;;;;;17.25;8.05;;;-1.80;99.90;;;;;;5112137;28;20105;-58
2021/12/21 10:23:35;;;;;;;16.42;7.13;;;-1.70;99.90;;;;;;5111987;28;20097;-58
2021/12/21 10:26:12;;;;;;;20.77;7.88;;;-1.70;99.90;;;;;;5111638;28;20040;-58
2021/12/21 10:28:45;;;;;;;19.85;7.53;;;-1.60;99.90;;;;;;5112056;28;20048;-58
2021/12/21 10:31:27;;;;;;;18.88;7.07;;;-1.50;99.90;;;;;;5111980;28;20100;-58
2021/12/21 10:33:56;;;;;;;17.08;7.40;;;-1.50;99.90;;;;;;5112013;28;20089;-57
2021/12/21 10:36:25;;;;;;;16.63;6.45;;;-1.40;99.90;;;;;;5111352;28;20453;-58
2021/12/21 10:38:59;;;;;;;12.32;6.20;;;-1.50;99.90;;;;;;5111960;28;20455;-58
2021/12/21 10:41:37;;;;;;;31.55;6.88;;;-1.50;99.90;;;;;;5111999;28;20040;-58
2021/12/21 10:44:13;;;;;;;13.50;6.53;;;-1.40;99.90;;;;;;5112155;28;20445;-58
2021/12/21 10:46:42;;;;;;;18.50;6.45;;;-1.40;99.90;;;;;;5111183;28;20445;-58
2021/12/21 10:49:29;;;;;;;15.52;7.05;;;-1.40;99.90;;;;;;5111580;28;20035;-58
2021/12/21 10:52:05;;;;;;;12.82;6.40;;;-1.40;99.90;;;;;;5111705;28;20044;-58
2021/12/21 10:54:42;;;;;;;16.13;6.95;;;-1.30;99.90;;;;;;5111775;28;20044;-58
2021/12/21 10:57:31;;;;;;;16.73;5.68;;;-1.20;99.90;;;;;;5110925;28;20048;-58
2021/12/21 11:00:01;;;;;;;19.38;6.95;;;-1.10;99.90;;;;;;5111673;28;20055;-58
2021/12/21 11:02:34;;;;;;;16.25;6.30;;;-1.20;99.90;;;;;;5111518;28;20036;-58
2021/12/21 11:05:09;;;;;;;15.70;6.55;;;-1.10;99.90;;;;;;5111704;28;20054;-57
2021/12/21 11:07:46;;;;;;;12.82;5.72;;;-1.00;99.90;;;;;;5111560;28;20284;-58
2021/12/21 11:10:17;;;;;;;11.75;5.07;;;-1.00;99.90;;;;;;5111740;28;20084;-58
2021/12/21 11:13:10;;;;;;;10.88;4.75;;;-0.90;99.90;;;;;;5111559;28;20052;-58
2021/12/21 11:15:56;;;;;;;16.15;5.15;;;-0.80;99.90;;;;;;5110970;28;20044;-52
2021/12/21 11:18:25;;;;;;;11.35;6.35;;;-0.80;99.90;;;;;;5109198;28;20055;-59
2021/12/21 11:21:01;;;;;;;9.52;5.43;;;-0.70;99.90;;;;;;5111360;28;20043;-58
2021/12/21 11:23:29;;;;;;;12.48;4.15;;;-0.70;99.90;;;;;;5111414;28;20048;-60
2021/12/21 11:25:58;;;;;;;14.90;5.35;;;-0.60;99.90;;;;;;5105202;28;20039;-59
2021/12/21 11:28:35;;;;;;;9.57;4.47;;;-0.60;99.90;;;;;;5099075;28;20036;-60
2021/12/21 11:31:06;;;;;;;10.40;5.13;;;-0.50;99.90;;;;;;5095022;28;20110;-60
2021/12/21 11:33:43;;;;;;;10.02;4.78;;;-0.50;99.90;;;;;;5095033;28;20550;-59
2021/12/21 11:39:02;;;;;;;11.32;4.43;;;-0.40;99.90;;;;;;5094776;28;20449;-60
2021/12/21 11:41:30;;;;;;;10.48;4.88;;;-0.40;99.90;;;;;;5095070;28;20036;-60
2021/12/21 11:44:11;;;;;;;12.52;4.20;;;-0.40;99.90;;;;;;5094702;28;20067;-59
2021/12/21 11:46:58;;;;;;;15.27;4.82;;;-0.30;99.90;;;;;;5094255;28;20074;-59
2021/12/21 11:49:40;;;;;;;9.45;4.30;;;-0.20;99.90;;;;;;5094429;28;20484;-60
2021/12/21 11:52:14;;;;;;;11.90;3.63;;;-0.20;99.90;;;;;;5094648;28;20153;-60
2021/12/21 11:54:43;;;;;;;6.90;3.47;;;-0.20;99.90;;;;;;5094570;28;20119;-60
2021/12/21 11:57:10;;;;;;;10.60;3.85;;;-0.10;99.90;;;;;;5094042;28;20040;-60
2021/12/21 11:59:37;;;;;;;8.13;4.10;;;-0.10;99.90;;;;;;5094304;28;20063;-60
2021/12/21 12:02:06;;;;;;;9.75;3.80;;;-0.10;99.90;;;;;;5094152;28;20032;-60
2021/12/21 12:04:35;;;;;;;7.22;4.03;;;0.00;99.90;;;;;;5094406;28;20040;-60
2021/12/21 12:07:15;;;;;;;11.13;4.43;;;0.00;99.90;;;;;;5093762;28;20500;-60
2021/12/21 12:09:42;;;;;;;9.60;3.55;;;0.10;99.90;;;;;;5094315;28;20040;-60
2021/12/21 12:12:11;;;;;;;6.80;3.40;;;0.10;99.90;;;;;;5094026;28;20123;-60
2021/12/21 12:14:41;;;;;;;9.82;4.38;;;0.20;99.90;;;;;;5093761;28;20044;-60
2021/12/21 12:17:22;;;;;;;8.70;3.85;;;0.20;99.90;;;;;;5093406;28;20090;-59
2021/12/21 12:20:02;;;;;;;7.53;3.92;;;0.20;99.90;;;;;;5094367;28;20055;-60
2021/12/21 12:22:41;;;;;;;13.88;4.53;;;0.30;99.90;;;;;;5094242;28;20044;-59
2021/12/21 12:25:18;;;;;;;9.18;4.50;;;0.30;99.90;;;;;;5093535;28;20044;-60
2021/12/21 12:27:50;;;;;;;8.52;4.70;;;0.30;99.90;;;;;;5093867;28;20032;-60
2021/12/21 12:30:21;;;;;;;14.32;5.00;;;0.40;99.90;;;;;;5093765;28;20086;-60
2021/12/21 12:33:00;;;;;;;14.48;4.85;;;0.40;99.90;;;;;;5093668;28;20046;-60
2021/12/21 12:35:30;;;;;;;13.13;5.30;;;0.40;99.90;;;;;;5093399;28;20044;-60
2021/12/21 12:38:15;;;;;;;13.05;5.35;;;0.40;99.90;;;;;;5092842;28;20459;-60
2021/12/21 12:40:54;;;;;;;10.68;5.25;;;0.40;99.90;;;;;;5093754;28;20493;-60
2021/12/21 12:43:25;;;;;;;14.48;5.28;;;0.40;99.90;;;;;;5094022;28;20044;-59
2021/12/21 12:46:01;;;;;;;13.98;5.85;;;0.50;99.90;;;;;;5092825;28;20048;-60
2021/12/21 12:48:37;;;;;;;12.27;5.00;;;0.60;99.90;;;;;;5093520;28;20054;-60
2021/12/21 12:51:06;;;;;;;13.65;5.20;;;0.60;99.90;;;;;;5093450;28;20117;-60
2021/12/21 12:53:44;;;;;;;14.15;6.93;;;0.60;99.90;;;;;;5093367;28;20046;-60
2021/12/21 12:56:14;;;;;;;20.35;9.27;;;0.50;99.90;;;;;;5092656;28;20043;-60
2021/12/21 12:58:55;;;;;;;20.85;10.27;;;0.30;99.90;;;;;;5093252;28;20039;-59
2021/12/21 13:01:25;;;;;;;20.30;9.60;;;0.20;99.90;;;;;;5093164;28;20044;-59
2021/12/21 13:03:58;;;;;;;24.50;9.52;;;0.10;99.90;;;;;;5092893;28;20081;-59
2021/12/21 13:06:31;;;;;;;23.85;10.32;;;0.00;99.90;;;;;;5092518;28;20048;-59
2021/12/21 13:08:59;;;;;;;22.25;9.90;;;-0.10;99.90;;;;;;5093195;28;20068;-59
2021/12/21 13:11:28;;;;;;;19.02;9.38;;;-0.20;99.90;;;;;;5093159;28;20052;-59
2021/12/21 13:13:57;;;;;;;22.08;10.05;;;-0.30;99.90;;;;;;5092921;28;20036;-59
2021/12/21 13:16:27;;;;;;;23.85;10.75;;;-0.40;99.90;;;;;;5092472;28;20040;-59
2021/12/21 13:19:04;;;;;;;24.42;11.40;;;-0.40;99.90;;;;;;5092776;28;20121;-59
2021/12/21 13:21:36;;;;;;;21.65;10.20;;;-0.50;99.90;;;;;;5093016;28;20075;-59
2021/12/21 13:24:09;;;;;;;24.85;10.68;;;-0.50;99.90;;;;;;5092921;28;20121;-59
2021/12/21 13:26:48;;;;;;;26.92;10.35;;;-0.50;99.90;;;;;;5092478;28;20052;-59
2021/12/21 13:29:18;;;;;;;27.13;12.07;;;-0.60;99.90;;;;;;5100701;28;20669;-59
2021/12/21 13:31:47;;;;;;;21.73;10.90;;;-0.70;99.90;;;;;;5112761;28;20043;-59
2021/12/21 13:34:15;;;;;;;27.30;11.27;;;-0.70;99.90;;;;;;5112539;28;20039;-59
2021/12/21 13:36:46;;;;;;;27.73;12.32;;;-0.80;99.90;;;;;;5109458;28;20084;-59
2021/12/21 13:39:17;;;;;;;24.95;11.43;;;-0.80;99.90;;;;;;5112595;28;20035;-59
2021/12/21 13:41:51;;;;;;;26.45;11.90;;;-0.90;99.90;;;;;;5109879;28;20055;-59
2021/12/21 13:44:32;;;;;;;26.65;12.48;;;-0.90;99.90;;;;;;5112893;28;20058;-59
2021/12/21 13:47:03;;;;;;;29.67;13.18;;;-1.00;99.90;;;;;;5112502;28;20453;-59
2021/12/21 13:49:59;;;;;;;26.33;11.57;;;-1.10;99.90;;;;;;5112245;28;20045;-59
2021/12/21 13:52:32;;;;;;;30.17;12.35;;;-1.10;99.90;;;;;;5110221;28;20047;-59
2021/12/21 13:55:00;;;;;;;22.60;11.57;;;-1.30;99.90;;;;;;5112094;28;20039;-59
2021/12/21 13:57:28;;;;;;;31.70;14.00;;;-1.40;99.90;;;;;;5111759;28;20407;-59
2021/12/21 13:59:57;;;;;;;31.42;13.13;;;-1.50;99.90;;;;;;5112306;28;20071;-59
2021/12/21 14:02:33;;;;;;;30.50;13.13;;;-1.60;99.90;;;;;;5112333;28;20056;-59
2021/12/21 14:05:06;;;;;;;28.23;13.68;;;-1.70;99.90;;;;;;5109618;28;20492;-59
2021/12/21 14:07:36;;;;;;;28.52;13.45;;;-1.80;99.90;;;;;;5111809;28;20047;-59
2021/12/21 14:10:09;;;;;;;33.38;14.23;;;-1.90;99.90;;;;;;5111953;28;20040;-59